Camelford, United Kingdom
Current Conditions -  °F | °C
As of 8:50 AM on Saturday 25 Oct 2014 (Local Time) from EGHQ Reporting Station
Broken Clouds Broken Clouds  
Wind Chill: 10°   Ceiling: 3500
Heat Index: 10°   Visibility: 6mi
Dew Point:   Wind: 12mph
Humidity: 94%   Direction: 220°SW
Pressure: 30.06"   Gusts: NA
Location:  50.62°N, 4.68°W
Report Text: EGHQ 250750Z 22010KT 9999 FEW010 BKN035 10/09 Q1018
Loading
Personal Weather Stations






























Interactive Weather Map
Tropical Storm Tracking
New forecast layout! Learn more

10-Day Weather Forecast

Advertisements
Track Severe Weather on mobile